Science Garden, Philippines

10:20 AM PHT on February 28, 2017 (GMT +0800)
Manila City | | Change Station

Elev 0 ft 14.60 °N, 120.97 °E | Updated 3 minutes ago

Mostly Cloudy
Mostly Cloudy
85.1 °F
Feels Like 92 °F
N
5.0
Wind Variable Wind from North
Gusts 12.4 mph

Today
High -- | Low -- °F
--% Chance of Precip.
Yesterday
High -- | Low -- °F
Precip. -- in
Pressure 29.98 in
Visibility 6.2 miles
Clouds Few 2300 ft
Few 2500 ft
Mostly Cloudy 9000 ft
Heat Index 92 °F
Dew Point 74 °F
Humidity 68%
Rainfall Not available.
Snow Depth Not available.
6:13 AM 6:03 PM
Waxing Crescent, 3% visible
METAR RPLL 280200Z 09010KT 060V140 9999 FEW023CB FEW025 BKN090 29/21 Q1015 NOSIG RMK A2997 CB NW-NNE
Pressure 29.98 in
Visibility 6.2 miles
Clouds Few 2300 ft
Few 2500 ft
Mostly Cloudy 9000 ft
Heat Index 92 °F
Dew Point 74 °F
Humidity 68%
Rainfall Not available.
Snow Depth Not available.
6:13 AM 6:03 PM
Waxing Crescent, 3% visible
METAR RPLL 280200Z 09010KT 060V140 9999 FEW023CB FEW025 BKN090 29/21 Q1015 NOSIG RMK A2997 CB NW-NNE

Get Your Daily Forecast Email!

Thanks for signing up!

Be on the lookout for a verification email in your inbox.

You'll start receiving the daily forecast at 8 AM.

×

10-Day Weather Forecast

No radar image for this location.
×

Almanac

Astronomy

Feb. 28, 2017 Rise Set
Actual Time
Civil Twilight
Nautical Twilight
Astronomical Twilight
Moon
Length of Visible Light
Length of Day
Tomorrow will be .
, % of the Moon is Illuminated

Today's Extremes

Country Highs Country Lows

Community

WunderPhotos

Upload Photos

1,962,540 photos uploaded!

WunderBlog® & News

Nearby

Air Quality

  Air Quality AQ Index Pollutant
Not available.

Snow Depth

Station Depth Elevation

Earthquake Activity

City Distance Mag. Time & Date
Minimum magnitude displayed is 2.5.

Coastal Water Temperatures

Place Temperature

Stations

Nearby Weather Stations

Station Location Temp. Windchill Dew Point Humidity Wind Precip. Elev Updated Type